sensor_id;sensor_type;location;lat;lon;timestamp;temperature;humidity
16102;DHT22;56411;52.964;10.540;2023-09-08T00:00:51;16.40;99.90
16102;DHT22;56411;52.964;10.540;2023-09-08T00:03:18;16.40;99.90
16102;DHT22;56411;52.964;10.540;2023-09-08T00:05:47;16.30;99.90
16102;DHT22;56411;52.964;10.540;2023-09-08T00:08:14;16.20;99.90
16102;DHT22;56411;52.964;10.540;2023-09-08T00:10:41;16.20;99.90
16102;DHT22;56411;52.964;10.540;2023-09-08T00:13:09;16.10;99.90
16102;DHT22;56411;52.964;10.540;2023-09-08T00:15:36;16.10;99.90
16102;DHT22;56411;52.964;10.540;2023-09-08T00:18:04;16.10;99.90
16102;DHT22;56411;52.964;10.540;2023-09-08T00:20:31;16.10;99.90
16102;DHT22;56411;52.964;10.540;2023-09-08T00:22:58;16.00;99.90
16102;DHT22;56411;52.964;10.540;2023-09-08T00:25:25;16.00;99.90
16102;DHT22;56411;52.964;10.540;2023-09-08T00:27:52;16.00;99.90
16102;DHT22;56411;52.964;10.540;2023-09-08T00:30:21;15.90;99.90
16102;DHT22;56411;52.964;10.540;2023-09-08T00:32:48;15.90;99.90
16102;DHT22;56411;52.964;10.540;2023-09-08T00:35:15;15.90;99.90
16102;DHT22;56411;52.964;10.540;2023-09-08T00:37:41;15.90;99.90
16102;DHT22;56411;52.964;10.540;2023-09-08T00:40:10;15.80;99.90
16102;DHT22;56411;52.964;10.540;2023-09-08T00:42:37;15.80;99.90
16102;DHT22;56411;52.964;10.540;2023-09-08T00:45:04;15.80;99.90
16102;DHT22;56411;52.964;10.540;2023-09-08T00:47:33;15.80;99.90
16102;DHT22;56411;52.964;10.540;2023-09-08T00:50:01;15.80;99.90
16102;DHT22;56411;52.964;10.540;2023-09-08T00:52:28;15.70;99.90
16102;DHT22;56411;52.964;10.540;2023-09-08T00:54:58;15.70;99.90
16102;DHT22;56411;52.964;10.540;2023-09-08T00:57:25;15.70;99.90
16102;DHT22;56411;52.964;10.540;2023-09-08T00:59:53;15.60;99.90
16102;DHT22;56411;52.964;10.540;2023-09-08T01:02:20;15.60;99.90
16102;DHT22;56411;52.964;10.540;2023-09-08T01:04:49;15.60;99.90
16102;DHT22;56411;52.964;10.540;2023-09-08T01:07:18;15.60;99.90
16102;DHT22;56411;52.964;10.540;2023-09-08T01:09:46;15.60;99.90
16102;DHT22;56411;52.964;10.540;2023-09-08T01:12:14;15.50;99.90
16102;DHT22;56411;52.964;10.540;2023-09-08T01:14:41;15.50;99.90
16102;DHT22;56411;52.964;10.540;2023-09-08T01:17:08;15.50;99.90
16102;DHT22;56411;52.964;10.540;2023-09-08T01:19:35;15.50;99.90
16102;DHT22;56411;52.964;10.540;2023-09-08T01:22:22;15.50;99.90
16102;DHT22;56411;52.964;10.540;2023-09-08T01:25:05;15.40;99.90
16102;DHT22;56411;52.964;10.540;2023-09-08T01:27:35;15.40;99.90
16102;DHT22;56411;52.964;10.540;2023-09-08T01:30:03;15.30;99.90
16102;DHT22;56411;52.964;10.540;2023-09-08T01:32:31;15.30;99.90
16102;DHT22;56411;52.964;10.540;2023-09-08T01:34:59;15.30;99.90
16102;DHT22;56411;52.964;10.540;2023-09-08T01:37:26;15.20;99.90
16102;DHT22;56411;52.964;10.540;2023-09-08T01:39:53;15.20;99.90
16102;DHT22;56411;52.964;10.540;2023-09-08T01:42:21;15.20;99.90
16102;DHT22;56411;52.964;10.540;2023-09-08T01:44:48;15.10;99.90
16102;DHT22;56411;52.964;10.540;2023-09-08T01:47:15;15.10;99.90
16102;DHT22;56411;52.964;10.540;2023-09-08T01:49:43;15.00;99.90
16102;DHT22;56411;52.964;10.540;2023-09-08T01:52:10;15.00;99.90
16102;DHT22;56411;52.964;10.540;2023-09-08T01:54:37;15.10;99.90
16102;DHT22;56411;52.964;10.540;2023-09-08T01:57:04;15.00;99.90
16102;DHT22;56411;52.964;10.540;2023-09-08T01:59:32;15.10;99.90
16102;DHT22;56411;52.964;10.540;2023-09-08T02:01:59;15.00;99.90
16102;DHT22;56411;52.964;10.540;2023-09-08T02:04:27;15.00;99.90
16102;DHT22;56411;52.964;10.540;2023-09-08T02:06:54;15.00;99.90
16102;DHT22;56411;52.964;10.540;2023-09-08T02:09:21;14.90;99.90
16102;DHT22;56411;52.964;10.540;2023-09-08T02:11:48;14.90;99.90
16102;DHT22;56411;52.964;10.540;2023-09-08T02:14:15;14.80;99.90
16102;DHT22;56411;52.964;10.540;2023-09-08T02:16:44;14.80;99.90
16102;DHT22;56411;52.964;10.540;2023-09-08T02:19:11;14.80;99.90
16102;DHT22;56411;52.964;10.540;2023-09-08T02:21:38;14.70;99.90
16102;DHT22;56411;52.964;10.540;2023-09-08T02:24:05;14.70;99.90
16102;DHT22;56411;52.964;10.540;2023-09-08T02:26:32;14.60;99.90
16102;DHT22;56411;52.964;10.540;2023-09-08T02:28:59;14.50;99.90
16102;DHT22;56411;52.964;10.540;2023-09-08T02:31:26;14.40;99.90
16102;DHT22;56411;52.964;10.540;2023-09-08T02:33:55;14.50;99.90
16102;DHT22;56411;52.964;10.540;2023-09-08T02:36:22;14.50;99.90
16102;DHT22;56411;52.964;10.540;2023-09-08T02:38:51;14.40;99.90
16102;DHT22;56411;52.964;10.540;2023-09-08T02:41:18;14.30;99.90
16102;DHT22;56411;52.964;10.540;2023-09-08T02:43:45;14.30;99.90
16102;DHT22;56411;52.964;10.540;2023-09-08T02:46:13;14.30;99.90
16102;DHT22;56411;52.964;10.540;2023-09-08T02:48:40;14.20;99.90
16102;DHT22;56411;52.964;10.540;2023-09-08T02:51:08;14.20;99.90
16102;DHT22;56411;52.964;10.540;2023-09-08T02:53:37;14.20;99.90
16102;DHT22;56411;52.964;10.540;2023-09-08T02:56:04;14.10;99.90
16102;DHT22;56411;52.964;10.540;2023-09-08T02:58:32;14.00;99.90
16102;DHT22;56411;52.964;10.540;2023-09-08T03:01:10;14.00;99.90
16102;DHT22;56411;52.964;10.540;2023-09-08T03:03:37;13.90;99.90
16102;DHT22;56411;52.964;10.540;2023-09-08T03:06:04;13.90;99.90
16102;DHT22;56411;52.964;10.540;2023-09-08T03:08:32;13.90;99.90
16102;DHT22;56411;52.964;10.540;2023-09-08T03:10:59;13.80;99.90
16102;DHT22;56411;52.964;10.540;2023-09-08T03:13:26;13.80;99.90
16102;DHT22;56411;52.964;10.540;2023-09-08T03:15:55;13.80;99.90
16102;DHT22;56411;52.964;10.540;2023-09-08T03:18:22;13.80;99.90
16102;DHT22;56411;52.964;10.540;2023-09-08T03:20:50;13.80;99.90
16102;DHT22;56411;52.964;10.540;2023-09-08T03:23:17;13.80;99.90
16102;DHT22;56411;52.964;10.540;2023-09-08T03:25:46;13.70;99.90
16102;DHT22;56411;52.964;10.540;2023-09-08T03:28:15;13.70;99.90
16102;DHT22;56411;52.964;10.540;2023-09-08T03:30:42;13.60;99.90
16102;DHT22;56411;52.964;10.540;2023-09-08T03:33:09;13.50;99.90
16102;DHT22;56411;52.964;10.540;2023-09-08T03:35:36;13.40;99.90
16102;DHT22;56411;52.964;10.540;2023-09-08T03:38:03;13.40;99.90
16102;DHT22;56411;52.964;10.540;2023-09-08T03:40:30;13.30;99.90
16102;DHT22;56411;52.964;10.540;2023-09-08T03:42:58;13.30;99.90
16102;DHT22;56411;52.964;10.540;2023-09-08T03:45:25;13.20;99.90
16102;DHT22;56411;52.964;10.540;2023-09-08T03:47:52;13.20;99.90
16102;DHT22;56411;52.964;10.540;2023-09-08T03:50:19;13.10;99.90
16102;DHT22;56411;52.964;10.540;2023-09-08T03:52:48;13.10;99.90
16102;DHT22;56411;52.964;10.540;2023-09-08T03:55:15;13.20;99.90
16102;DHT22;56411;52.964;10.540;2023-09-08T03:57:42;13.20;99.90
16102;DHT22;56411;52.964;10.540;2023-09-08T04:00:12;13.20;99.90
16102;DHT22;56411;52.964;10.540;2023-09-08T04:02:45;13.20;99.90
16102;DHT22;56411;52.964;10.540;2023-09-08T04:05:12;13.20;99.90
16102;DHT22;56411;52.964;10.540;2023-09-08T04:07:39;13.20;99.90
16102;DHT22;56411;52.964;10.540;2023-09-08T04:10:11;13.10;99.90
16102;DHT22;56411;52.964;10.540;2023-09-08T04:12:39;13.10;99.90
16102;DHT22;56411;52.964;10.540;2023-09-08T04:15:07;13.10;99.90
16102;DHT22;56411;52.964;10.540;2023-09-08T04:17:37;13.10;99.90
16102;DHT22;56411;52.964;10.540;2023-09-08T04:20:05;13.10;99.90
16102;DHT22;56411;52.964;10.540;2023-09-08T04:22:32;13.20;99.90
16102;DHT22;56411;52.964;10.540;2023-09-08T04:25:00;13.20;99.90
16102;DHT22;56411;52.964;10.540;2023-09-08T04:27:27;13.20;99.90
16102;DHT22;56411;52.964;10.540;2023-09-08T04:29:54;13.20;99.90
16102;DHT22;56411;52.964;10.540;2023-09-08T04:32:21;13.20;99.90
16102;DHT22;56411;52.964;10.540;2023-09-08T04:34:49;13.20;99.90
16102;DHT22;56411;52.964;10.540;2023-09-08T04:37:16;13.10;99.90
16102;DHT22;56411;52.964;10.540;2023-09-08T04:39:43;13.00;99.90
16102;DHT22;56411;52.964;10.540;2023-09-08T04:42:10;13.00;99.90
16102;DHT22;56411;52.964;10.540;2023-09-08T04:44:38;12.90;99.90
16102;DHT22;56411;52.964;10.540;2023-09-08T04:47:05;12.90;99.90
16102;DHT22;56411;52.964;10.540;2023-09-08T04:49:32;12.90;99.90
16102;DHT22;56411;52.964;10.540;2023-09-08T04:52:01;12.80;99.90
16102;DHT22;56411;52.964;10.540;2023-09-08T04:54:28;12.80;99.90
16102;DHT22;56411;52.964;10.540;2023-09-08T04:56:55;12.80;99.90
16102;DHT22;56411;52.964;10.540;2023-09-08T04:59:22;12.80;99.90
16102;DHT22;56411;52.964;10.540;2023-09-08T05:01:49;12.80;99.90
16102;DHT22;56411;52.964;10.540;2023-09-08T05:04:17;12.80;99.90
16102;DHT22;56411;52.964;10.540;2023-09-08T05:06:44;12.80;99.90
16102;DHT22;56411;52.964;10.540;2023-09-08T05:09:12;12.90;99.90
16102;DHT22;56411;52.964;10.540;2023-09-08T05:11:39;12.90;99.90
16102;DHT22;56411;52.964;10.540;2023-09-08T05:14:06;13.00;99.90
16102;DHT22;56411;52.964;10.540;2023-09-08T05:16:33;13.00;99.90
16102;DHT22;56411;52.964;10.540;2023-09-08T05:19:05;13.10;99.90
16102;DHT22;56411;52.964;10.540;2023-09-08T05:21:33;13.00;99.90
16102;DHT22;56411;52.964;10.540;2023-09-08T05:24:00;13.00;99.90
16102;DHT22;56411;52.964;10.540;2023-09-08T05:26:29;13.10;99.90
16102;DHT22;56411;52.964;10.540;2023-09-08T05:28:55;13.10;99.90
16102;DHT22;56411;52.964;10.540;2023-09-08T05:31:22;13.20;99.90
16102;DHT22;56411;52.964;10.540;2023-09-08T05:33:49;13.20;99.90
16102;DHT22;56411;52.964;10.540;2023-09-08T05:36:16;13.20;99.90
16102;DHT22;56411;52.964;10.540;2023-09-08T05:38:43;13.30;99.90
16102;DHT22;56411;52.964;10.540;2023-09-08T05:41:10;13.40;99.90
16102;DHT22;56411;52.964;10.540;2023-09-08T05:43:38;13.40;99.90
16102;DHT22;56411;52.964;10.540;2023-09-08T05:46:05;13.50;99.90
16102;DHT22;56411;52.964;10.540;2023-09-08T05:48:32;13.60;99.90
16102;DHT22;56411;52.964;10.540;2023-09-08T05:50:59;13.70;99.90
16102;DHT22;56411;52.964;10.540;2023-09-08T05:53:27;13.80;99.90
16102;DHT22;56411;52.964;10.540;2023-09-08T05:55:54;13.90;99.90
16102;DHT22;56411;52.964;10.540;2023-09-08T05:58:21;13.90;99.90
16102;DHT22;56411;52.964;10.540;2023-09-08T06:00:51;14.00;99.90
16102;DHT22;56411;52.964;10.540;2023-09-08T06:03:18;14.00;99.90
16102;DHT22;56411;52.964;10.540;2023-09-08T06:05:45;14.10;99.90
16102;DHT22;56411;52.964;10.540;2023-09-08T06:08:12;14.20;99.90
16102;DHT22;56411;52.964;10.540;2023-09-08T06:10:39;14.20;99.90
16102;DHT22;56411;52.964;10.540;2023-09-08T06:13:06;14.30;99.90
16102;DHT22;56411;52.964;10.540;2023-09-08T06:15:33;14.40;99.90
16102;DHT22;56411;52.964;10.540;2023-09-08T06:18:01;14.60;99.90
16102;DHT22;56411;52.964;10.540;2023-09-08T06:20:27;14.70;99.90
16102;DHT22;56411;52.964;10.540;2023-09-08T06:22:54;14.90;99.90
16102;DHT22;56411;52.964;10.540;2023-09-08T06:25:21;15.00;99.90
16102;DHT22;56411;52.964;10.540;2023-09-08T06:27:48;15.10;99.90
16102;DHT22;56411;52.964;10.540;2023-09-08T06:30:15;15.30;99.90
16102;DHT22;56411;52.964;10.540;2023-09-08T06:32:43;15.40;99.90
16102;DHT22;56411;52.964;10.540;2023-09-08T06:35:12;15.50;99.90
16102;DHT22;56411;52.964;10.540;2023-09-08T06:37:39;15.70;99.90
16102;DHT22;56411;52.964;10.540;2023-09-08T06:40:07;15.80;99.90
16102;DHT22;56411;52.964;10.540;2023-09-08T06:42:34;16.00;99.90
16102;DHT22;56411;52.964;10.540;2023-09-08T06:45:00;16.10;99.90
16102;DHT22;56411;52.964;10.540;2023-09-08T06:47:28;16.20;99.90
16102;DHT22;56411;52.964;10.540;2023-09-08T06:49:54;16.30;99.90
16102;DHT22;56411;52.964;10.540;2023-09-08T06:52:23;16.40;99.90
16102;DHT22;56411;52.964;10.540;2023-09-08T06:54:50;16.60;99.90
16102;DHT22;56411;52.964;10.540;2023-09-08T06:57:18;16.80;99.90
16102;DHT22;56411;52.964;10.540;2023-09-08T06:59:45;16.80;99.90
16102;DHT22;56411;52.964;10.540;2023-09-08T07:02:12;16.90;99.90
16102;DHT22;56411;52.964;10.540;2023-09-08T07:04:39;17.00;99.90
16102;DHT22;56411;52.964;10.540;2023-09-08T07:07:06;17.10;99.90
16102;DHT22;56411;52.964;10.540;2023-09-08T07:09:35;17.10;99.90
16102;DHT22;56411;52.964;10.540;2023-09-08T07:12:03;17.20;99.90
16102;DHT22;56411;52.964;10.540;2023-09-08T07:14:30;17.30;99.90
16102;DHT22;56411;52.964;10.540;2023-09-08T07:16:57;17.30;99.90
16102;DHT22;56411;52.964;10.540;2023-09-08T07:19:25;17.40;99.90
16102;DHT22;56411;52.964;10.540;2023-09-08T07:21:52;17.50;99.90
16102;DHT22;56411;52.964;10.540;2023-09-08T07:24:19;17.60;99.90
16102;DHT22;56411;52.964;10.540;2023-09-08T07:26:48;17.70;99.90
16102;DHT22;56411;52.964;10.540;2023-09-08T07:29:16;17.80;99.90
16102;DHT22;56411;52.964;10.540;2023-09-08T07:31:43;17.90;99.90
16102;DHT22;56411;52.964;10.540;2023-09-08T07:34:10;18.00;99.90
16102;DHT22;56411;52.964;10.540;2023-09-08T07:36:37;18.10;99.90
16102;DHT22;56411;52.964;10.540;2023-09-08T07:39:04;18.20;99.90
16102;DHT22;56411;52.964;10.540;2023-09-08T07:41:31;18.30;99.90
16102;DHT22;56411;52.964;10.540;2023-09-08T07:43:59;18.40;99.90
16102;DHT22;56411;52.964;10.540;2023-09-08T07:46:26;18.50;99.90
16102;DHT22;56411;52.964;10.540;2023-09-08T07:48:53;18.60;99.90
16102;DHT22;56411;52.964;10.540;2023-09-08T07:51:20;18.80;99.90
16102;DHT22;56411;52.964;10.540;2023-09-08T07:53:47;18.90;99.90
16102;DHT22;56411;52.964;10.540;2023-09-08T07:56:14;18.90;99.90
16102;DHT22;56411;52.964;10.540;2023-09-08T07:58:41;19.00;99.90
16102;DHT22;56411;52.964;10.540;2023-09-08T08:01:09;19.20;99.90
16102;DHT22;56411;52.964;10.540;2023-09-08T08:03:36;19.20;99.90
16102;DHT22;56411;52.964;10.540;2023-09-08T08:06:03;19.30;99.90
16102;DHT22;56411;52.964;10.540;2023-09-08T08:08:31;19.40;99.90
16102;DHT22;56411;52.964;10.540;2023-09-08T08:10:58;19.50;99.90
16102;DHT22;56411;52.964;10.540;2023-09-08T08:13:25;19.60;99.90
16102;DHT22;56411;52.964;10.540;2023-09-08T08:15:52;19.60;99.90
16102;DHT22;56411;52.964;10.540;2023-09-08T08:18:21;19.70;99.90
16102;DHT22;56411;52.964;10.540;2023-09-08T08:20:48;19.80;99.90
16102;DHT22;56411;52.964;10.540;2023-09-08T08:23:15;19.90;99.90
16102;DHT22;56411;52.964;10.540;2023-09-08T08:25:42;20.00;99.90
16102;DHT22;56411;52.964;10.540;2023-09-08T08:28:09;20.10;99.90
16102;DHT22;56411;52.964;10.540;2023-09-08T08:30:36;20.20;99.90
16102;DHT22;56411;52.964;10.540;2023-09-08T08:33:03;20.30;99.90
16102;DHT22;56411;52.964;10.540;2023-09-08T08:35:31;20.40;99.90
16102;DHT22;56411;52.964;10.540;2023-09-08T08:37:59;20.50;99.90
16102;DHT22;56411;52.964;10.540;2023-09-08T08:40:26;20.60;99.90
16102;DHT22;56411;52.964;10.540;2023-09-08T08:42:55;20.70;99.90
16102;DHT22;56411;52.964;10.540;2023-09-08T08:45:23;20.90;99.90
16102;DHT22;56411;52.964;10.540;2023-09-08T08:47:51;21.10;99.90
16102;DHT22;56411;52.964;10.540;2023-09-08T08:50:19;21.20;99.90
16102;DHT22;56411;52.964;10.540;2023-09-08T08:52:48;21.30;99.90
16102;DHT22;56411;52.964;10.540;2023-09-08T08:55:15;21.30;99.90
16102;DHT22;56411;52.964;10.540;2023-09-08T08:57:43;21.40;99.90
16102;DHT22;56411;52.964;10.540;2023-09-08T09:00:11;21.70;99.90
16102;DHT22;56411;52.964;10.540;2023-09-08T09:02:42;21.70;99.90
16102;DHT22;56411;52.964;10.540;2023-09-08T09:05:11;21.80;99.90
16102;DHT22;56411;52.964;10.540;2023-09-08T09:07:38;21.90;99.90
16102;DHT22;56411;52.964;10.540;2023-09-08T09:10:08;22.10;99.90
16102;DHT22;56411;52.964;10.540;2023-09-08T09:12:36;22.20;99.90
16102;DHT22;56411;52.964;10.540;2023-09-08T09:15:04;22.30;99.90
16102;DHT22;56411;52.964;10.540;2023-09-08T09:17:32;22.40;99.90
16102;DHT22;56411;52.964;10.540;2023-09-08T09:20:13;22.60;99.90
16102;DHT22;56411;52.964;10.540;2023-09-08T09:22:43;22.70;99.90
16102;DHT22;56411;52.964;10.540;2023-09-08T09:25:21;22.80;99.90
16102;DHT22;56411;52.964;10.540;2023-09-08T09:27:50;23.00;99.90
16102;DHT22;56411;52.964;10.540;2023-09-08T09:30:17;23.10;99.90
16102;DHT22;56411;52.964;10.540;2023-09-08T09:32:45;23.20;99.90
16102;DHT22;56411;52.964;10.540;2023-09-08T09:35:15;23.40;99.90
16102;DHT22;56411;52.964;10.540;2023-09-08T09:37:42;23.50;99.90
16102;DHT22;56411;52.964;10.540;2023-09-08T09:40:11;23.70;99.90
16102;DHT22;56411;52.964;10.540;2023-09-08T09:42:38;23.80;99.90
16102;DHT22;56411;52.964;10.540;2023-09-08T09:45:07;23.90;99.90
16102;DHT22;56411;52.964;10.540;2023-09-08T09:47:35;24.10;99.90
16102;DHT22;56411;52.964;10.540;2023-09-08T09:50:03;24.20;99.90
16102;DHT22;56411;52.964;10.540;2023-09-08T09:52:30;24.30;99.90
16102;DHT22;56411;52.964;10.540;2023-09-08T09:54:58;24.50;99.90
16102;DHT22;56411;52.964;10.540;2023-09-08T09:57:27;24.60;99.90
16102;DHT22;56411;52.964;10.540;2023-09-08T09:59:55;24.70;99.90
16102;DHT22;56411;52.964;10.540;2023-09-08T10:02:23;24.90;99.90
16102;DHT22;56411;52.964;10.540;2023-09-08T10:04:53;25.00;99.90
16102;DHT22;56411;52.964;10.540;2023-09-08T10:07:20;25.10;99.90
16102;DHT22;56411;52.964;10.540;2023-09-08T10:09:47;25.30;99.90
16102;DHT22;56411;52.964;10.540;2023-09-08T10:12:14;25.50;99.90
16102;DHT22;56411;52.964;10.540;2023-09-08T10:14:43;25.60;99.90
16102;DHT22;56411;52.964;10.540;2023-09-08T10:17:15;25.80;99.90
16102;DHT22;56411;52.964;10.540;2023-09-08T10:19:44;25.90;99.90
16102;DHT22;56411;52.964;10.540;2023-09-08T10:22:16;26.00;99.90
16102;DHT22;56411;52.964;10.540;2023-09-08T10:24:46;26.10;99.90
16102;DHT22;56411;52.964;10.540;2023-09-08T10:27:15;26.30;99.90
16102;DHT22;56411;52.964;10.540;2023-09-08T10:29:46;26.30;99.90
16102;DHT22;56411;52.964;10.540;2023-09-08T10:32:14;26.40;99.90
16102;DHT22;56411;52.964;10.540;2023-09-08T10:34:43;26.70;99.90
16102;DHT22;56411;52.964;10.540;2023-09-08T10:37:19;26.70;99.90
16102;DHT22;56411;52.964;10.540;2023-09-08T10:39:46;27.00;99.90
16102;DHT22;56411;52.964;10.540;2023-09-08T10:42:21;27.00;99.90
16102;DHT22;56411;52.964;10.540;2023-09-08T10:45:00;27.00;99.90
16102;DHT22;56411;52.964;10.540;2023-09-08T10:47:39;27.10;99.90
16102;DHT22;56411;52.964;10.540;2023-09-08T10:50:15;27.30;99.90
16102;DHT22;56411;52.964;10.540;2023-09-08T10:52:42;27.50;99.90
16102;DHT22;56411;52.964;10.540;2023-09-08T10:55:11;27.80;99.90
16102;DHT22;56411;52.964;10.540;2023-09-08T10:57:44;28.10;99.90
16102;DHT22;56411;52.964;10.540;2023-09-08T11:00:18;28.60;99.90
16102;DHT22;56411;52.964;10.540;2023-09-08T11:02:49;29.10;99.90
16102;DHT22;56411;52.964;10.540;2023-09-08T11:05:17;29.70;99.90
16102;DHT22;56411;52.964;10.540;2023-09-08T11:07:45;30.50;99.90
16102;DHT22;56411;52.964;10.540;2023-09-08T11:10:14;31.20;99.90
16102;DHT22;56411;52.964;10.540;2023-09-08T11:12:42;31.90;99.90
16102;DHT22;56411;52.964;10.540;2023-09-08T11:15:10;32.80;99.90
16102;DHT22;56411;52.964;10.540;2023-09-08T11:17:38;33.40;99.90
16102;DHT22;56411;52.964;10.540;2023-09-08T11:20:08;33.80;99.90
16102;DHT22;56411;52.964;10.540;2023-09-08T11:22:36;34.30;99.90
16102;DHT22;56411;52.964;10.540;2023-09-08T11:25:07;35.10;99.90
16102;DHT22;56411;52.964;10.540;2023-09-08T11:27:34;35.60;99.90
16102;DHT22;56411;52.964;10.540;2023-09-08T11:30:01;35.80;99.90
16102;DHT22;56411;52.964;10.540;2023-09-08T11:32:32;35.70;99.90
16102;DHT22;56411;52.964;10.540;2023-09-08T11:35:03;35.80;99.90
16102;DHT22;56411;52.964;10.540;2023-09-08T11:37:35;35.40;99.90
16102;DHT22;56411;52.964;10.540;2023-09-08T11:40:03;35.50;99.90
16102;DHT22;56411;52.964;10.540;2023-09-08T11:42:38;36.20;98.80
16102;DHT22;56411;52.964;10.540;2023-09-08T11:45:10;36.10;98.20
16102;DHT22;56411;52.964;10.540;2023-09-08T11:47:40;36.80;97.30
16102;DHT22;56411;52.964;10.540;2023-09-08T11:50:10;37.60;97.10
16102;DHT22;56411;52.964;10.540;2023-09-08T11:52:42;37.80;96.40
16102;DHT22;56411;52.964;10.540;2023-09-08T11:55:12;37.90;95.90
16102;DHT22;56411;52.964;10.540;2023-09-08T11:57:40;38.10;94.30
16102;DHT22;56411;52.964;10.540;2023-09-08T12:00:08;38.20;94.40
16102;DHT22;56411;52.964;10.540;2023-09-08T12:02:40;38.80;92.20
16102;DHT22;56411;52.964;10.540;2023-09-08T12:05:13;38.10;92.30
16102;DHT22;56411;52.964;10.540;2023-09-08T12:07:40;37.80;91.60
16102;DHT22;56411;52.964;10.540;2023-09-08T12:10:09;38.10;91.80
16102;DHT22;56411;52.964;10.540;2023-09-08T12:12:42;38.70;90.40
16102;DHT22;56411;52.964;10.540;2023-09-08T12:15:09;38.50;89.30
16102;DHT22;56411;52.964;10.540;2023-09-08T12:17:47;38.20;89.60
16102;DHT22;56411;52.964;10.540;2023-09-08T12:20:16;38.70;90.40
16102;DHT22;56411;52.964;10.540;2023-09-08T12:22:49;38.80;85.40
16102;DHT22;56411;52.964;10.540;2023-09-08T12:25:17;38.40;79.40
16102;DHT22;56411;52.964;10.540;2023-09-08T12:27:45;39.00;80.30
16102;DHT22;56411;52.964;10.540;2023-09-08T12:30:17;39.50;78.80
16102;DHT22;56411;52.964;10.540;2023-09-08T12:32:46;40.00;76.90
16102;DHT22;56411;52.964;10.540;2023-09-08T12:35:20;39.40;75.80
16102;DHT22;56411;52.964;10.540;2023-09-08T12:37:52;39.60;75.90
16102;DHT22;56411;52.964;10.540;2023-09-08T12:40:20;40.10;73.60
16102;DHT22;56411;52.964;10.540;2023-09-08T12:42:47;40.00;70.70
16102;DHT22;56411;52.964;10.540;2023-09-08T12:45:14;39.70;71.40
16102;DHT22;56411;52.964;10.540;2023-09-08T12:47:41;40.20;71.70
16102;DHT22;56411;52.964;10.540;2023-09-08T12:50:08;40.90;71.30
16102;DHT22;56411;52.964;10.540;2023-09-08T12:52:37;41.10;69.90
16102;DHT22;56411;52.964;10.540;2023-09-08T12:55:04;40.50;69.50
16102;DHT22;56411;52.964;10.540;2023-09-08T12:57:31;40.70;67.20
16102;DHT22;56411;52.964;10.540;2023-09-08T12:59:58;41.00;65.60
16102;DHT22;56411;52.964;10.540;2023-09-08T13:02:25;40.70;64.40
16102;DHT22;56411;52.964;10.540;2023-09-08T13:04:52;40.70;63.50
16102;DHT22;56411;52.964;10.540;2023-09-08T13:07:21;40.70;63.30
16102;DHT22;56411;52.964;10.540;2023-09-08T13:09:49;40.40;63.90
16102;DHT22;56411;52.964;10.540;2023-09-08T13:12:17;40.70;61.80
16102;DHT22;56411;52.964;10.540;2023-09-08T13:14:44;40.70;61.50
16102;DHT22;56411;52.964;10.540;2023-09-08T13:17:11;40.50;61.60
16102;DHT22;56411;52.964;10.540;2023-09-08T13:19:38;40.60;62.20
16102;DHT22;56411;52.964;10.540;2023-09-08T13:22:06;40.80;61.90
16102;DHT22;56411;52.964;10.540;2023-09-08T13:24:33;40.30;62.50
16102;DHT22;56411;52.964;10.540;2023-09-08T13:27:02;40.30;61.70
16102;DHT22;56411;52.964;10.540;2023-09-08T13:29:29;40.60;64.50
16102;DHT22;56411;52.964;10.540;2023-09-08T13:31:56;40.40;59.80
16102;DHT22;56411;52.964;10.540;2023-09-08T13:34:24;40.20;59.30
16102;DHT22;56411;52.964;10.540;2023-09-08T13:36:51;40.30;61.00
16102;DHT22;56411;52.964;10.540;2023-09-08T13:39:18;40.60;61.30
16102;DHT22;56411;52.964;10.540;2023-09-08T13:41:46;40.10;61.90
16102;DHT22;56411;52.964;10.540;2023-09-08T13:44:16;40.20;62.20
16102;DHT22;56411;52.964;10.540;2023-09-08T13:46:43;40.60;61.40
16102;DHT22;56411;52.964;10.540;2023-09-08T13:49:10;40.60;59.50
16102;DHT22;56411;52.964;10.540;2023-09-08T13:51:37;40.70;60.20
16102;DHT22;56411;52.964;10.540;2023-09-08T13:54:04;40.60;61.10
16102;DHT22;56411;52.964;10.540;2023-09-08T13:56:31;41.10;61.90
16102;DHT22;56411;52.964;10.540;2023-09-08T13:58:58;41.30;62.30
16102;DHT22;56411;52.964;10.540;2023-09-08T14:01:27;41.90;61.90
16102;DHT22;56411;52.964;10.540;2023-09-08T14:03:55;41.00;62.80
16102;DHT22;56411;52.964;10.540;2023-09-08T14:06:22;40.50;63.70
16102;DHT22;56411;52.964;10.540;2023-09-08T14:08:49;40.20;63.10
16102;DHT22;56411;52.964;10.540;2023-09-08T14:11:16;40.60;61.70
16102;DHT22;56411;52.964;10.540;2023-09-08T14:13:44;40.60;62.60
16102;DHT22;56411;52.964;10.540;2023-09-08T14:16:11;40.50;62.60
16102;DHT22;56411;52.964;10.540;2023-09-08T14:18:40;41.00;64.20
16102;DHT22;56411;52.964;10.540;2023-09-08T14:21:07;41.30;62.00
16102;DHT22;56411;52.964;10.540;2023-09-08T14:23:34;41.80;63.70
16102;DHT22;56411;52.964;10.540;2023-09-08T14:26:03;40.80;63.10
16102;DHT22;56411;52.964;10.540;2023-09-08T14:28:30;41.20;64.20
16102;DHT22;56411;52.964;10.540;2023-09-08T14:30:57;41.10;63.50
16102;DHT22;56411;52.964;10.540;2023-09-08T14:33:25;41.40;63.90
16102;DHT22;56411;52.964;10.540;2023-09-08T14:35:53;41.60;64.20
16102;DHT22;56411;52.964;10.540;2023-09-08T14:38:21;41.50;64.20
16102;DHT22;56411;52.964;10.540;2023-09-08T14:40:55;41.90;62.60
16102;DHT22;56411;52.964;10.540;2023-09-08T14:43:23;42.00;62.50
16102;DHT22;56411;52.964;10.540;2023-09-08T14:45:50;41.90;63.00
16102;DHT22;56411;52.964;10.540;2023-09-08T14:48:17;41.80;62.30
16102;DHT22;56411;52.964;10.540;2023-09-08T14:50:44;41.40;63.10
16102;DHT22;56411;52.964;10.540;2023-09-08T14:53:13;41.60;62.10
16102;DHT22;56411;52.964;10.540;2023-09-08T14:55:40;41.40;61.50
16102;DHT22;56411;52.964;10.540;2023-09-08T14:58:09;41.10;62.80
16102;DHT22;56411;52.964;10.540;2023-09-08T15:00:37;41.30;62.30
16102;DHT22;56411;52.964;10.540;2023-09-08T15:03:05;41.30;62.40
16102;DHT22;56411;52.964;10.540;2023-09-08T15:05:32;41.40;60.50
16102;DHT22;56411;52.964;10.540;2023-09-08T15:07:59;41.60;60.00
16102;DHT22;56411;52.964;10.540;2023-09-08T15:10:28;40.70;61.80
16102;DHT22;56411;52.964;10.540;2023-09-08T15:12:55;41.10;61.40
16102;DHT22;56411;52.964;10.540;2023-09-08T15:15:22;40.50;60.20
16102;DHT22;56411;52.964;10.540;2023-09-08T15:17:51;40.20;60.40
16102;DHT22;56411;52.964;10.540;2023-09-08T15:20:18;39.90;60.80